createdAt,value
2023-02-13T00:01:47.072Z,-10.60
2023-02-13T00:06:51.622Z,-10.56
2023-02-13T00:11:54.884Z,-10.53
2023-02-13T00:16:58.328Z,-10.76
2023-02-13T00:22:03.040Z,-10.61
2023-02-13T00:27:06.319Z,-10.67
2023-02-13T00:32:10.181Z,-10.74
2023-02-13T00:37:15.019Z,-10.84
2023-02-13T00:42:18.260Z,-10.87
2023-02-13T00:47:22.350Z,-10.88
2023-02-13T00:52:27.016Z,-10.74
2023-02-13T00:57:31.930Z,-10.68
2023-02-13T01:02:36.352Z,-10.59
2023-02-13T01:07:41.276Z,-10.44
2023-02-13T01:12:44.428Z,-10.34
2023-02-13T01:17:47.760Z,-10.24
2023-02-13T01:22:52.880Z,-10.17
2023-02-13T01:27:56.197Z,-10.01
2023-02-13T01:32:59.533Z,-9.93
2023-02-13T01:38:04.456Z,-9.86
2023-02-13T01:43:11.108Z,-9.84
2023-02-13T01:48:18.256Z,-9.83
2023-02-13T01:53:28.592Z,-9.81
2023-02-13T01:58:35.320Z,-9.78
2023-02-13T02:03:42.043Z,-9.79
2023-02-13T02:08:50.624Z,-9.63
2023-02-13T02:13:55.509Z,-9.57
2023-02-13T02:19:36.345Z,-9.50
2023-02-13T02:25:09.048Z,-9.42
2023-02-13T02:30:51.969Z,-9.36
2023-02-13T02:36:08.801Z,-9.30
2023-02-13T02:41:35.617Z,-9.22
2023-02-13T02:47:02.883Z,-9.19
2023-02-13T02:52:14.413Z,-9.10
2023-02-13T02:57:23.236Z,-9.05
2023-02-13T03:02:44.046Z,-9.08
2023-02-13T03:07:48.773Z,-9.04
2023-02-13T03:13:14.811Z,-8.95
2023-02-13T03:18:35.407Z,-8.95
2023-02-13T03:23:52.679Z,-8.95
2023-02-13T03:29:20.558Z,-8.88
2023-02-13T03:34:49.077Z,-8.82
2023-02-13T03:40:02.161Z,-8.86
2023-02-13T03:45:30.586Z,-8.74
2023-02-13T03:50:33.935Z,-8.71
2023-02-13T03:55:59.953Z,-8.65
2023-02-13T04:01:06.326Z,-8.71
2023-02-13T04:06:15.423Z,-8.68
2023-02-13T04:11:26.722Z,-8.70
2023-02-13T04:16:34.573Z,-8.66
2023-02-13T04:21:40.346Z,-8.58
2023-02-13T04:26:47.998Z,-8.50
2023-02-13T04:31:51.563Z,-8.43
2023-02-13T04:36:55.396Z,-8.32
2023-02-13T04:42:00.127Z,-8.25
2023-02-13T04:47:03.428Z,-8.24
2023-02-13T04:52:06.832Z,-8.22
2023-02-13T04:57:11.401Z,-8.23
2023-02-13T05:02:14.577Z,-8.22
2023-02-13T05:07:18.091Z,-8.17
2023-02-13T05:12:22.869Z,-8.11
2023-02-13T05:17:28.299Z,-8.02
2023-02-13T05:22:48.947Z,-7.96
2023-02-13T05:27:53.553Z,-7.86
2023-02-13T05:32:57.139Z,-7.77
2023-02-13T05:38:00.662Z,-7.68
2023-02-13T05:43:05.316Z,-7.62
2023-02-13T05:48:09.006Z,-7.53
2023-02-13T05:53:12.317Z,-7.46
2023-02-13T05:58:17.071Z,-7.28
2023-02-13T06:03:20.586Z,-7.09
2023-02-13T06:08:25.064Z,-7.01
2023-02-13T06:13:30.223Z,-6.90
2023-02-13T06:18:33.492Z,-6.79
2023-02-13T06:23:37.010Z,-6.68
2023-02-13T06:28:41.743Z,-6.55
2023-02-13T06:33:45.152Z,-6.43
2023-02-13T06:38:48.464Z,-6.31
2023-02-13T06:43:53.759Z,-6.20
2023-02-13T06:48:57.199Z,-6.04
2023-02-13T06:54:00.430Z,-5.96
2023-02-13T06:59:05.068Z,-5.86
2023-02-13T07:04:08.462Z,-5.70
2023-02-13T07:09:13.575Z,-5.59
2023-02-13T07:14:18.262Z,-5.50
2023-02-13T07:19:21.630Z,-5.44
2023-02-13T07:24:24.852Z,-5.39
2023-02-13T07:29:29.903Z,-5.35
2023-02-13T07:34:33.189Z,-5.20
2023-02-13T07:39:39.016Z,-5.13
2023-02-13T07:44:43.737Z,-4.92
2023-02-13T07:49:47.327Z,-4.66
2023-02-13T07:54:51.580Z,-4.50
2023-02-13T07:59:56.304Z,-4.38
2023-02-13T08:04:59.718Z,-4.39
2023-02-13T08:10:21.123Z,-4.31
2023-02-13T08:15:26.080Z,-4.31
2023-02-13T08:20:29.599Z,-4.28
2023-02-13T08:25:32.766Z,-4.22
2023-02-13T08:30:37.419Z,-4.17
2023-02-13T08:35:40.625Z,-4.17
2023-02-13T08:40:43.906Z,-3.94
2023-02-13T08:45:48.742Z,-3.72
2023-02-13T08:50:57.996Z,-3.41
2023-02-13T08:56:01.435Z,-3.28
2023-02-13T09:01:08.656Z,-3.33
2023-02-13T09:06:11.885Z,-3.21
2023-02-13T09:11:15.157Z,-3.31
2023-02-13T09:16:20.152Z,-3.34
2023-02-13T09:21:24.841Z,-3.21
2023-02-13T09:26:28.133Z,-2.87
2023-02-13T09:31:33.112Z,-2.52
2023-02-13T09:36:37.509Z,-2.50
2023-02-13T09:41:44.034Z,-2.36
2023-02-13T09:46:48.909Z,-2.33
2023-02-13T09:51:58.242Z,-2.20
2023-02-13T09:57:05.470Z,-2.07
2023-02-13T10:02:25.365Z,-1.90
2023-02-13T10:07:38.689Z,-1.62
2023-02-13T10:13:01.064Z,-1.33
2023-02-13T10:18:11.302Z,-1.14
2023-02-13T10:23:22.428Z,-1.07
2023-02-13T10:28:35.123Z,-1.26
2023-02-13T10:33:49.025Z,-1.28
2023-02-13T10:38:58.608Z,-1.31
2023-02-13T10:44:19.194Z,-1.32
2023-02-13T10:49:36.409Z,-1.39
2023-02-13T10:54:59.627Z,-1.29
2023-02-13T11:00:12.050Z,-1.44
2023-02-13T11:05:19.573Z,-1.55
2023-02-13T11:10:24.706Z,-1.35
2023-02-13T11:15:30.060Z,-1.06
2023-02-13T11:20:38.081Z,-1.08
2023-02-13T11:25:41.541Z,-1.13
2023-02-13T11:30:45.251Z,-1.37
2023-02-13T11:35:50.299Z,-1.38
2023-02-13T11:41:05.277Z,-1.55
2023-02-13T11:46:15.510Z,-1.53
2023-02-13T11:51:21.173Z,-1.53
2023-02-13T11:56:24.369Z,-1.49
2023-02-13T12:01:29.833Z,-1.58
2023-02-13T12:06:40.014Z,-1.56
2023-02-13T12:11:47.264Z,-1.70
2023-02-13T12:16:54.345Z,-1.46
2023-02-13T12:22:15.542Z,-1.42
2023-02-13T12:27:30.472Z,-1.32
2023-02-13T12:32:44.107Z,-1.25
2023-02-13T12:38:05.740Z,-1.19
2023-02-13T12:43:26.389Z,-1.26
2023-02-13T12:48:40.464Z,-1.23
2023-02-13T12:54:02.878Z,-1.23
2023-02-13T12:59:14.530Z,-1.24
2023-02-13T13:04:27.414Z,-1.25
2023-02-13T13:09:52.367Z,-1.28
2023-02-13T13:15:03.430Z,-1.29
2023-02-13T13:20:32.145Z,-1.29
2023-02-13T13:25:44.960Z,-1.27
2023-02-13T13:30:49.891Z,-1.26
2023-02-13T13:36:03.511Z,-1.26
2023-02-13T13:41:16.162Z,-1.23
2023-02-13T13:46:28.411Z,-1.21
2023-02-13T13:51:32.529Z,-1.19
2023-02-13T13:57:12.529Z,-1.17
2023-02-13T14:02:40.562Z,-1.16
2023-02-13T14:07:44.143Z,-1.15
2023-02-13T14:12:49.340Z,-1.16
2023-02-13T14:17:54.771Z,-1.16
2023-02-13T14:23:07.349Z,-1.17
2023-02-13T14:28:23.256Z,-1.18
2023-02-13T14:33:29.778Z,-1.19
2023-02-13T14:38:35.773Z,-1.25
2023-02-13T14:43:51.450Z,-1.30
2023-02-13T14:49:00.831Z,-1.35
2023-02-13T14:54:17.064Z,-1.40
2023-02-13T14:59:25.843Z,-1.40
2023-02-13T15:04:33.555Z,-1.41
2023-02-13T15:09:39.940Z,-1.39
2023-02-13T15:14:44.682Z,-1.39
2023-02-13T15:19:51.494Z,-1.41
2023-02-13T15:24:54.768Z,-1.41
2023-02-13T15:30:03.655Z,-1.39
2023-02-13T15:35:23.681Z,-1.45
2023-02-13T15:40:29.429Z,-1.43
2023-02-13T15:45:34.414Z,-1.43
2023-02-13T15:50:38.119Z,-1.44
2023-02-13T15:55:41.466Z,-1.48
2023-02-13T16:00:46.261Z,-1.48
2023-02-13T16:05:51.154Z,-1.46
2023-02-13T16:11:24.985Z,-1.45
2023-02-13T16:16:32.620Z,-1.45
2023-02-13T16:21:36.057Z,-1.46
2023-02-13T16:26:42.551Z,-1.44
2023-02-13T16:31:47.472Z,-1.57
2023-02-13T16:36:50.911Z,-1.42
2023-02-13T16:41:54.442Z,-1.38
2023-02-13T16:47:02.236Z,-1.51
2023-02-13T16:52:17.965Z,-1.30
2023-02-13T16:57:32.751Z,-1.28
2023-02-13T17:02:38.596Z,-1.27
2023-02-13T17:07:44.177Z,-1.30
2023-02-13T17:12:47.541Z,-1.26
2023-02-13T17:17:53.817Z,-1.41
2023-02-13T17:22:58.645Z,-1.39
2023-02-13T17:28:04.317Z,-1.26
2023-02-13T17:33:13.392Z,-1.24
2023-02-13T17:38:17.651Z,-1.33
2023-02-13T17:43:22.107Z,-1.22
2023-02-13T17:48:26.716Z,-1.24
2023-02-13T17:53:31.459Z,-1.27
2023-02-13T17:58:34.633Z,-1.26
2023-02-13T18:03:39.493Z,-1.27
2023-02-13T18:08:42.977Z,-1.24
2023-02-13T18:13:48.552Z,-1.24
2023-02-13T18:18:53.263Z,-1.23
2023-02-13T18:23:56.426Z,-1.22
2023-02-13T18:28:59.615Z,-1.23
2023-02-13T18:34:04.218Z,-1.30
2023-02-13T18:39:08.142Z,-1.24
2023-02-13T18:44:20.163Z,-1.21
2023-02-13T18:49:32.180Z,-1.26
2023-02-13T18:54:35.399Z,-1.18
2023-02-13T18:59:38.606Z,-1.15
2023-02-13T19:04:43.355Z,-1.15
2023-02-13T19:09:46.607Z,-1.12
2023-02-13T19:14:49.825Z,-1.16
2023-02-13T19:19:55.814Z,-1.10
2023-02-13T19:24:59.270Z,-1.08
2023-02-13T19:30:02.571Z,-1.05
2023-02-13T19:35:08.128Z,-1.05
2023-02-13T19:40:12.799Z,-1.02
2023-02-13T19:45:17.071Z,-1.01
2023-02-13T19:50:22.547Z,-0.99
2023-02-13T19:55:27.327Z,-0.97
2023-02-13T20:00:31.200Z,-0.96
2023-02-13T20:05:41.065Z,-0.98
2023-02-13T20:10:46.480Z,-0.94
2023-02-13T20:15:50.027Z,-0.92
2023-02-13T20:20:54.715Z,-0.92
2023-02-13T20:26:03.249Z,-0.95
2023-02-13T20:31:11.651Z,-0.92
2023-02-13T20:36:18.282Z,-0.89
2023-02-13T20:41:23.396Z,-0.84
2023-02-13T20:46:26.929Z,-0.82
2023-02-13T20:51:31.644Z,-0.80
2023-02-13T20:56:35.029Z,-0.75
2023-02-13T21:01:41.574Z,-0.72
2023-02-13T21:06:47.696Z,-0.75
2023-02-13T21:11:51.075Z,-0.70
2023-02-13T21:16:54.481Z,-0.66
2023-02-13T21:22:12.086Z,-0.63
2023-02-13T21:27:15.478Z,-0.59
2023-02-13T21:32:20.135Z,-0.59
2023-02-13T21:37:24.686Z,-0.59
2023-02-13T21:42:28.170Z,-0.90
2023-02-13T21:47:31.635Z,-0.66
2023-02-13T21:52:36.441Z,-0.82
2023-02-13T21:57:39.987Z,-0.61
2023-02-13T22:02:43.173Z,-0.58
2023-02-13T22:08:13.508Z,-0.56
2023-02-13T22:13:16.749Z,-0.55
2023-02-13T22:18:20.077Z,-0.53
2023-02-13T22:28:37.569Z,-0.92
2023-02-13T22:33:40.941Z,-0.85
2023-02-13T22:38:46.087Z,-0.76
2023-02-13T22:43:49.684Z,-0.73
2023-02-13T22:48:53.375Z,-0.69
2023-02-13T22:53:59.249Z,-0.68
2023-02-13T22:59:02.482Z,-0.64
2023-02-13T23:04:05.990Z,-0.58
2023-02-13T23:09:10.615Z,-0.60
2023-02-13T23:14:14.738Z,-0.61
2023-02-13T23:19:17.959Z,-0.65
2023-02-13T23:24:23.025Z,-0.74
2023-02-13T23:29:26.915Z,-0.81
2023-02-13T23:34:30.565Z,-0.78
2023-02-13T23:39:35.313Z,-0.90
2023-02-13T23:44:38.757Z,-0.95
2023-02-13T23:49:41.988Z,-0.90
2023-02-13T23:54:47.064Z,-0.87
2023-02-13T23:59:51.191Z,-0.86
